Minerva Virgo — SXXT — position and weather

sailwx.info

Track history (hours):
 
Tides and Currents Weather Stations Pressure Air Temp Water Temp Dewpoint Dewpoint Depression Visibility Wind Speed Wind Dir Waves Ship Positions

Minerva Virgo

Last reported at 2015-Feb-28 11:33 UTC. Time now 2015-Feb-28 13:51 UTC.
Position N 43°53' E 034°31'.

Length 182 m; draft 10.1 m.

Type: Ship. MMSI: 240730000.

Date/timePositionNaut miles runAvg speedWind from/ knotsBaromVisibWave heightAir tempDewpointWater temp
2015-Feb-28 11:33N 43°53' E 034°31'1212.2
2015-Feb-28 10:32N 43°59' E 034°45'1812.1
2015-Feb-28 09:03N 44°09' E 035°07'612.2
2015-Feb-28 08:33N 44°12' E 035°14'2812.5
2015-Feb-28 06:20N 44°27' E 035°46'2412.7
2015-Feb-28 04:26N 44°40' E 036°15'2211.7
2015-Feb-28 02:33N 44°48' E 036°44'  
2015-Feb-25 14:21N 45°07' E 036°40'16 3.2
2015-Feb-25 09:21N 44°52' E 036°46'0 0.0
2015-Feb-25 08:33N 44°51' E 036°46'0 0.0
2015-Feb-25 07:12N 44°51' E 036°46'0 0.0
2015-Feb-25 00:27N 44°51' E 036°46'0 0.0
2015-Feb-24 14:09N 44°52' E 036°46'0 0.0
2015-Feb-24 13:12N 44°52' E 036°46'0 0.0
2015-Feb-24 11:33N 44°52' E 036°46'0 0.0
2015-Feb-24 09:33N 44°52' E 036°46'0 0.0
2015-Feb-23 22:12N 44°52' E 036°46'72 1.7
2015-Feb-22 03:18N 44°14' E 035°21'1011.5
2015-Feb-22 02:28N 44°09' E 035°10'1011.4
2015-Feb-22 01:33N 44°03' E 034°57'1211.5
2015-Feb-22 00:32N 43°57' E 034°44'1111.5
2015-Feb-21 23:33N 43°50' E 034°31'312 8.9
2015-Feb-20 12:33N 40°40' E 028°56'1 1.1
2015-Feb-20 11:33N 40°41' E 028°55'1 1.0
2015-Feb-20 10:33N 40°41' E 028°54'1 1.0
2015-Feb-20 09:34N 40°42' E 028°54'1 1.4
2015-Feb-20 08:33N 40°44' E 028°55'1 1.4
2015-Feb-20 07:31N 40°45' E 028°56'2 1.6
2015-Feb-20 06:32N 40°47' E 028°56'1 1.3
2015-Feb-20 05:33N 40°48' E 028°57'9 9.4
2015-Feb-20 04:33N 40°45' E 029°09'1 1.2
2015-Feb-20 03:33N 40°44' E 029°10'1 1.2
2015-Feb-20 02:33N 40°44' E 029°08'1 1.3
2015-Feb-20 01:33N 40°44' E 029°07'1 1.1
2015-Feb-20 00:33N 40°44' E 029°05'1 1.0
2015-Feb-19 23:33N 40°43' E 029°04'1 1.0
2015-Feb-19 22:34N 40°43' E 029°03'1 0.9
2015-Feb-19 21:33N 40°42' E 029°02'1 0.6
2015-Feb-19 20:33N 40°42' E 029°01'1 0.7
2015-Feb-19 19:33N 40°42' E 029°00'1 0.7
2015-Feb-19 18:33N 40°43' E 028°60'1 0.8
2015-Feb-19 17:31N 40°44' E 028°59'1 1.1
2015-Feb-19 16:32N 40°45' E 028°59'1 1.1
2015-Feb-19 15:33N 40°46' E 028°59'1 1.0
2015-Feb-19 14:33N 40°47' E 028°58'1 1.0
2015-Feb-19 13:30N 40°48' E 028°58'2 2.2
2015-Feb-19 12:23N 40°46' E 029°01'6 6.8
2015-Feb-19 11:33N 40°41' E 029°04'1 1.2
2015-Feb-19 10:33N 40°42' E 029°03'1 1.2
2015-Feb-19 09:33N 40°42' E 029°01'1 1.2
2015-Feb-19 08:32N 40°43' E 028°60'2 1.7
2015-Feb-19 07:33N 40°44' E 028°59'2 2.1
2015-Feb-19 06:33N 40°46' E 028°58'1 1.0
2015-Feb-19 05:33N 40°46' E 028°57'9 8.6
2015-Feb-19 04:33N 40°41' E 029°06'2 2.1
2015-Feb-19 03:33N 40°42' E 029°04'2 2.2
2015-Feb-19 02:33N 40°44' E 029°03'1 1.0
2015-Feb-19 01:30N 40°45' E 029°02'1 0.7
2015-Feb-19 00:33N 40°45' E 029°01'1 0.6
2015-Feb-18 23:31N 40°46' E 029°01'2 1.9
2015-Feb-18 22:33N 40°45' E 028°59'1110.5
2015-Feb-18 21:33N 40°39' E 028°48'3 2.9
2015-Feb-18 20:33N 40°39' E 028°44'2 2.5
2015-Feb-18 19:33N 40°42' E 028°45'2 2.2
2015-Feb-18 18:33N 40°44' E 028°46'2 1.8
2015-Feb-18 17:33N 40°46' E 028°46'1 1.3
2015-Feb-18 16:33N 40°47' E 028°46'2 1.8
2015-Feb-18 15:31N 40°49' E 028°45'1110.5
2015-Feb-18 14:27N 40°49' E 028°30'  
Track history (hours):
 
Tides and Currents Weather Stations Pressure Air Temp Water Temp Dewpoint Dewpoint Depression Visibility Wind Speed Wind Dir Waves Ship Positions

Minerva Virgo

Last reported at 2015-Feb-28 11:33 UTC. Time now 2015-Feb-28 13:51 UTC.
Position N 43°53' E 034°31'.

Length 182 m; draft 10.1 m.

Type: Ship. MMSI: 240730000.

Date/timePositionNaut miles runAvg speedWind from/ knotsBaromVisibWave heightAir tempDewpointWater temp
2015-Feb-28 11:33N 43°53' E 034°31'1212.2
2015-Feb-28 10:32N 43°59' E 034°45'1812.1
2015-Feb-28 09:03N 44°09' E 035°07'612.2
2015-Feb-28 08:33N 44°12' E 035°14'2812.5
2015-Feb-28 06:20N 44°27' E 035°46'2412.7
2015-Feb-28 04:26N 44°40' E 036°15'2211.7
2015-Feb-28 02:33N 44°48' E 036°44'  
2015-Feb-25 14:21N 45°07' E 036°40'16 3.2
2015-Feb-25 09:21N 44°52' E 036°46'0 0.0
2015-Feb-25 08:33N 44°51' E 036°46'0 0.0
2015-Feb-25 07:12N 44°51' E 036°46'0 0.0
2015-Feb-25 00:27N 44°51' E 036°46'0 0.0
2015-Feb-24 14:09N 44°52' E 036°46'0 0.0
2015-Feb-24 13:12N 44°52' E 036°46'0 0.0
2015-Feb-24 11:33N 44°52' E 036°46'0 0.0
2015-Feb-24 09:33N 44°52' E 036°46'0 0.0
2015-Feb-23 22:12N 44°52' E 036°46'72 1.7
2015-Feb-22 03:18N 44°14' E 035°21'1011.5
2015-Feb-22 02:28N 44°09' E 035°10'1011.4
2015-Feb-22 01:33N 44°03' E 034°57'1211.5
2015-Feb-22 00:32N 43°57' E 034°44'1111.5
2015-Feb-21 23:33N 43°50' E 034°31'312 8.9
2015-Feb-20 12:33N 40°40' E 028°56'1 1.1
2015-Feb-20 11:33N 40°41' E 028°55'1 1.0
2015-Feb-20 10:33N 40°41' E 028°54'1 1.0
2015-Feb-20 09:34N 40°42' E 028°54'1 1.4
2015-Feb-20 08:33N 40°44' E 028°55'1 1.4
2015-Feb-20 07:31N 40°45' E 028°56'2 1.6
2015-Feb-20 06:32N 40°47' E 028°56'1 1.3
2015-Feb-20 05:33N 40°48' E 028°57'9 9.4
2015-Feb-20 04:33N 40°45' E 029°09'1 1.2
2015-Feb-20 03:33N 40°44' E 029°10'1 1.2
2015-Feb-20 02:33N 40°44' E 029°08'1 1.3
2015-Feb-20 01:33N 40°44' E 029°07'1 1.1
2015-Feb-20 00:33N 40°44' E 029°05'1 1.0
2015-Feb-19 23:33N 40°43' E 029°04'1 1.0
2015-Feb-19 22:34N 40°43' E 029°03'1 0.9
2015-Feb-19 21:33N 40°42' E 029°02'1 0.6
2015-Feb-19 20:33N 40°42' E 029°01'1 0.7
2015-Feb-19 19:33N 40°42' E 029°00'1 0.7
2015-Feb-19 18:33N 40°43' E 028°60'1 0.8
2015-Feb-19 17:31N 40°44' E 028°59'1 1.1
2015-Feb-19 16:32N 40°45' E 028°59'1 1.1
2015-Feb-19 15:33N 40°46' E 028°59'1 1.0
2015-Feb-19 14:33N 40°47' E 028°58'1 1.0
2015-Feb-19 13:30N 40°48' E 028°58'2 2.2
2015-Feb-19 12:23N 40°46' E 029°01'6 6.8
2015-Feb-19 11:33N 40°41' E 029°04'1 1.2
2015-Feb-19 10:33N 40°42' E 029°03'1 1.2
2015-Feb-19 09:33N 40°42' E 029°01'1 1.2
2015-Feb-19 08:32N 40°43' E 028°60'2 1.7
2015-Feb-19 07:33N 40°44' E 028°59'2 2.1
2015-Feb-19 06:33N 40°46' E 028°58'1 1.0
2015-Feb-19 05:33N 40°46' E 028°57'9 8.6
2015-Feb-19 04:33N 40°41' E 029°06'2 2.1
2015-Feb-19 03:33N 40°42' E 029°04'2 2.2
2015-Feb-19 02:33N 40°44' E 029°03'1 1.0
2015-Feb-19 01:30N 40°45' E 029°02'1 0.7
2015-Feb-19 00:33N 40°45' E 029°01'1 0.6
2015-Feb-18 23:31N 40°46' E 029°01'2 1.9
2015-Feb-18 22:33N 40°45' E 028°59'1110.5
2015-Feb-18 21:33N 40°39' E 028°48'3 2.9
2015-Feb-18 20:33N 40°39' E 028°44'2 2.5
2015-Feb-18 19:33N 40°42' E 028°45'2 2.2
2015-Feb-18 18:33N 40°44' E 028°46'2 1.8
2015-Feb-18 17:33N 40°46' E 028°46'1 1.3
2015-Feb-18 16:33N 40°47' E 028°46'2 1.8
2015-Feb-18 15:31N 40°49' E 028°45'1110.5
2015-Feb-18 14:27N 40°49' E 028°30'  

Dump ship's entire track history